createdAt,value
2022-10-05T00:02:19.182Z,3.28
2022-10-05T00:04:47.550Z,4.05
2022-10-05T00:07:16.800Z,3.30
2022-10-05T00:09:45.813Z,8.57
2022-10-05T00:12:17.980Z,7.97
2022-10-05T00:14:46.260Z,6.18
2022-10-05T00:17:28.377Z,5.90
2022-10-05T00:19:55.431Z,6.25
2022-10-05T00:22:24.745Z,8.13
2022-10-05T00:24:56.583Z,9.10
2022-10-05T00:27:25.915Z,9.52
2022-10-05T00:29:57.663Z,7.38
2022-10-05T00:32:24.035Z,9.00
2022-10-05T00:34:50.379Z,7.80
2022-10-05T00:37:17.205Z,9.93
2022-10-05T00:39:43.979Z,13.73
2022-10-05T00:42:48.483Z,12.23
2022-10-05T00:45:31.266Z,12.05
2022-10-05T00:47:57.945Z,8.20
2022-10-05T00:50:33.357Z,9.35
2022-10-05T00:53:21.795Z,6.32
2022-10-05T00:56:01.941Z,6.90
2022-10-05T00:58:40.279Z,9.00
2022-10-05T01:01:12.544Z,7.18
2022-10-05T01:04:03.978Z,10.48
2022-10-05T01:06:51.495Z,10.77
2022-10-05T01:09:53.683Z,11.43
2022-10-05T01:12:26.607Z,10.35
2022-10-05T01:15:04.306Z,7.25
2022-10-05T01:17:39.872Z,5.22
2022-10-05T01:20:39.722Z,6.43
2022-10-05T01:23:31.021Z,5.85
2022-10-05T01:26:00.799Z,7.20
2022-10-05T01:28:47.983Z,7.93
2022-10-05T01:31:31.986Z,9.40
2022-10-05T01:34:11.473Z,9.20
2022-10-05T01:36:57.615Z,9.45
2022-10-05T01:39:37.596Z,9.27
2022-10-05T01:42:30.546Z,7.95
2022-10-05T01:44:59.535Z,4.65
2022-10-05T01:47:45.239Z,6.50
2022-10-05T01:50:17.423Z,2.90
2022-10-05T01:53:02.132Z,6.45
2022-10-05T01:55:50.288Z,7.88
2022-10-05T01:58:26.127Z,6.88
2022-10-05T02:01:04.055Z,7.55
2022-10-05T02:03:40.344Z,7.90
2022-10-05T02:06:26.250Z,13.32
2022-10-05T02:08:59.288Z,8.43
2022-10-05T02:11:26.328Z,6.25
2022-10-05T02:13:57.146Z,4.90
2022-10-05T02:16:31.387Z,7.40
2022-10-05T02:19:03.328Z,9.73
2022-10-05T02:21:33.878Z,6.07
2022-10-05T02:24:07.472Z,9.02
2022-10-05T02:26:37.246Z,8.02
2022-10-05T02:29:09.467Z,9.00
2022-10-05T02:32:00.875Z,7.43
2022-10-05T02:34:40.486Z,6.82
2022-10-05T02:37:36.405Z,6.70
2022-10-05T02:40:39.840Z,6.60
2022-10-05T02:43:16.791Z,6.82
2022-10-05T02:45:43.134Z,4.65
2022-10-05T02:48:29.643Z,5.53
2022-10-05T02:51:10.202Z,4.80
2022-10-05T02:53:54.958Z,6.00
2022-10-05T02:56:48.751Z,7.32
2022-10-05T02:59:26.612Z,4.30
2022-10-05T03:02:01.600Z,7.90
2022-10-05T03:04:34.601Z,8.25
2022-10-05T03:07:23.399Z,8.80
2022-10-05T03:10:01.377Z,8.90
2022-10-05T03:13:13.280Z,9.00
2022-10-05T03:16:06.672Z,8.60
2022-10-05T03:18:42.272Z,8.32
2022-10-05T03:21:47.947Z,9.52
2022-10-05T03:24:35.532Z,8.68
2022-10-05T03:27:42.585Z,9.55
2022-10-05T03:30:26.372Z,5.93
2022-10-05T03:33:02.093Z,5.85
2022-10-05T03:35:59.411Z,5.15
2022-10-05T03:38:31.210Z,5.55
2022-10-05T03:41:06.568Z,7.55
2022-10-05T03:44:08.548Z,6.38
2022-10-05T03:46:51.636Z,9.23
2022-10-05T03:49:24.019Z,18.80
2022-10-05T03:52:16.613Z,9.30
2022-10-05T03:54:49.526Z,12.75
2022-10-05T03:57:20.917Z,13.95
2022-10-05T04:00:18.158Z,22.23
2022-10-05T04:03:03.486Z,12.82
2022-10-05T04:05:35.662Z,13.23
2022-10-05T04:08:12.420Z,14.07
2022-10-05T04:10:50.686Z,22.90
2022-10-05T04:13:31.431Z,9.88
2022-10-05T04:16:06.199Z,11.13
2022-10-05T04:21:13.709Z,7.93
2022-10-05T04:23:48.227Z,7.97
2022-10-05T04:26:24.951Z,11.43
2022-10-05T04:29:05.172Z,9.23
2022-10-05T04:31:41.788Z,10.85
2022-10-05T04:34:53.450Z,8.25
2022-10-05T04:37:33.347Z,8.35
2022-10-05T04:40:16.371Z,8.98
2022-10-05T04:42:51.986Z,20.13
2022-10-05T04:45:41.079Z,8.77
2022-10-05T04:48:44.923Z,9.63
2022-10-05T04:51:34.521Z,8.30
2022-10-05T04:54:27.645Z,12.77
2022-10-05T04:56:59.768Z,14.18
2022-10-05T04:59:50.895Z,7.97
2022-10-05T05:02:44.513Z,11.30
2022-10-05T05:05:31.891Z,11.23
2022-10-05T05:08:27.857Z,8.82
2022-10-05T05:11:19.033Z,8.98
2022-10-05T05:14:05.987Z,11.98
2022-10-05T05:16:39.576Z,11.55
2022-10-05T05:19:08.904Z,9.18
2022-10-05T05:21:52.830Z,12.73
2022-10-05T05:24:40.999Z,10.55
2022-10-05T05:27:32.358Z,8.73
2022-10-05T05:30:34.239Z,10.48
2022-10-05T05:33:09.682Z,10.15
2022-10-05T05:35:43.878Z,10.05
2022-10-05T05:38:35.256Z,12.98
2022-10-05T05:41:14.337Z,19.00
2022-10-05T05:44:01.863Z,14.90
2022-10-05T05:47:02.841Z,13.43
2022-10-05T05:49:45.971Z,15.38
2022-10-05T05:52:32.167Z,20.00
2022-10-05T05:55:05.335Z,18.35
2022-10-05T05:57:43.228Z,26.83
2022-10-05T06:00:31.677Z,19.40
2022-10-05T06:02:58.172Z,15.07
2022-10-05T06:05:53.580Z,12.60
2022-10-05T06:08:40.427Z,12.13
2022-10-05T06:11:24.304Z,15.13
2022-10-05T06:13:51.251Z,18.42
2022-10-05T06:16:31.843Z,20.73
2022-10-05T06:19:14.264Z,20.35
2022-10-05T06:22:02.241Z,14.70
2022-10-05T06:24:36.658Z,17.77
2022-10-05T06:27:25.465Z,13.98
2022-10-05T06:30:05.126Z,15.85
2022-10-05T06:32:37.503Z,13.05
2022-10-05T06:35:08.290Z,17.10
2022-10-05T06:38:10.141Z,16.77
2022-10-05T06:40:51.320Z,12.18
2022-10-05T06:43:26.082Z,16.10
2022-10-05T06:46:10.938Z,21.88
2022-10-05T06:48:49.431Z,18.20
2022-10-05T06:51:26.844Z,18.20
2022-10-05T06:54:04.070Z,19.95
2022-10-05T06:56:45.975Z,18.75
2022-10-05T06:59:30.333Z,13.45
2022-10-05T07:02:28.380Z,20.13
2022-10-05T07:05:13.044Z,18.95
2022-10-05T07:07:58.064Z,18.73
2022-10-05T07:10:30.131Z,21.40
2022-10-05T07:13:09.111Z,25.75
2022-10-05T07:15:48.220Z,21.05
2022-10-05T07:18:33.916Z,25.27
2022-10-05T07:21:06.184Z,22.65
2022-10-05T07:23:45.021Z,18.35
2022-10-05T07:26:33.807Z,21.58
2022-10-05T07:29:16.583Z,40.47
2022-10-05T07:31:51.351Z,27.58
2022-10-05T07:37:19.277Z,32.58
2022-10-05T07:40:10.461Z,25.98
2022-10-05T07:42:52.004Z,31.25
2022-10-05T07:45:42.898Z,35.65
2022-10-05T07:48:17.440Z,39.83
2022-10-05T07:50:58.925Z,30.20
2022-10-05T07:54:00.274Z,32.38
2022-10-05T07:56:37.437Z,17.25
2022-10-05T07:59:07.761Z,44.08
2022-10-05T08:01:44.638Z,41.95
2022-10-05T08:04:27.763Z,37.25
2022-10-05T08:07:07.114Z,53.08
2022-10-05T08:09:42.379Z,56.80
2022-10-05T08:12:24.719Z,64.20
2022-10-05T08:15:09.925Z,70.30
2022-10-05T08:20:33.619Z,69.10
2022-10-05T08:23:16.123Z,61.72
2022-10-05T08:26:03.540Z,71.88
2022-10-05T08:29:12.847Z,57.80
2022-10-05T08:31:43.398Z,59.22
2022-10-05T08:34:27.753Z,54.97
2022-10-05T08:37:03.468Z,96.22
2022-10-05T08:39:37.466Z,57.30
2022-10-05T08:42:44.657Z,36.03
2022-10-05T08:45:58.362Z,26.65
2022-10-05T08:48:38.448Z,22.45
2022-10-05T08:51:18.287Z,27.35
2022-10-05T08:54:05.716Z,23.60
2022-10-05T08:56:35.747Z,28.27
2022-10-05T08:59:24.055Z,27.70
2022-10-05T09:02:15.035Z,24.05
2022-10-05T09:05:00.349Z,25.40
2022-10-05T09:07:59.160Z,18.27
2022-10-05T09:10:50.246Z,26.33
2022-10-05T09:13:25.672Z,19.83
2022-10-05T09:16:30.403Z,22.15
2022-10-05T09:19:15.558Z,14.55
2022-10-05T09:21:43.644Z,13.48
2022-10-05T09:24:13.139Z,17.85
2022-10-05T09:27:02.459Z,16.52
2022-10-05T09:29:31.797Z,17.40
2022-10-05T09:32:24.103Z,13.43
2022-10-05T09:35:13.428Z,22.85
2022-10-05T09:38:17.321Z,15.93
2022-10-05T09:40:59.923Z,14.80
2022-10-05T09:43:34.996Z,16.50
2022-10-05T09:46:32.714Z,15.93
2022-10-05T09:48:59.059Z,15.82
2022-10-05T09:51:28.372Z,14.57
2022-10-05T09:54:24.147Z,21.38
2022-10-05T09:57:15.173Z,17.10
2022-10-05T10:00:09.352Z,15.68
2022-10-05T10:03:12.799Z,11.98
2022-10-05T10:06:03.428Z,15.27
2022-10-05T10:08:46.760Z,12.02
2022-10-05T10:11:26.413Z,10.23
2022-10-05T10:14:11.662Z,11.40
2022-10-05T10:16:58.204Z,12.13
2022-10-05T10:19:57.657Z,10.88
2022-10-05T10:22:46.081Z,10.63
2022-10-05T10:25:52.550Z,8.95
2022-10-05T10:28:34.655Z,12.18
2022-10-05T10:31:19.992Z,7.97
2022-10-05T10:33:53.903Z,8.45
2022-10-05T10:36:46.693Z,9.00
2022-10-05T10:39:38.922Z,8.63
2022-10-05T10:42:36.797Z,7.28
2022-10-05T10:45:19.597Z,9.18
2022-10-05T10:48:00.219Z,8.65
2022-10-05T10:50:50.047Z,9.60
2022-10-05T10:53:41.642Z,7.03
2022-10-05T10:56:29.524Z,8.00
2022-10-05T10:59:17.302Z,7.25
2022-10-05T11:02:21.235Z,6.45
2022-10-05T11:05:06.075Z,7.80
2022-10-05T11:07:45.244Z,8.00
2022-10-05T11:10:20.719Z,9.05
2022-10-05T11:13:01.895Z,5.50
2022-10-05T11:15:47.054Z,6.15
2022-10-05T11:18:24.714Z,6.82
2022-10-05T11:21:20.388Z,6.47
2022-10-05T11:23:56.284Z,5.32
2022-10-05T11:26:57.845Z,5.43
2022-10-05T11:30:09.211Z,5.95
2022-10-05T11:32:44.473Z,6.80
2022-10-05T11:35:50.130Z,5.78
2022-10-05T11:38:46.160Z,6.25
2022-10-05T11:41:34.040Z,10.27
2022-10-05T11:44:39.320Z,6.68
2022-10-05T11:47:18.972Z,6.07
2022-10-05T11:49:57.379Z,4.75
2022-10-05T11:52:31.162Z,5.07
2022-10-05T11:55:11.821Z,6.25
2022-10-05T11:57:54.094Z,4.40
2022-10-05T12:00:24.190Z,6.00
2022-10-05T12:03:15.749Z,5.45
2022-10-05T12:06:08.710Z,6.75
2022-10-05T12:08:43.056Z,4.57
2022-10-05T12:11:46.290Z,5.28
2022-10-05T12:14:35.355Z,5.13
2022-10-05T12:17:14.965Z,6.38
2022-10-05T12:19:46.460Z,4.68
2022-10-05T12:22:33.714Z,4.25
2022-10-05T12:25:25.968Z,3.97
2022-10-05T12:27:56.674Z,2.95
2022-10-05T12:30:54.872Z,3.45
2022-10-05T12:33:38.362Z,3.97
2022-10-05T12:36:24.719Z,3.00
2022-10-05T12:38:56.916Z,3.55
2022-10-05T12:41:40.336Z,4.32
2022-10-05T12:44:45.115Z,3.38
2022-10-05T12:47:30.571Z,6.25
2022-10-05T12:50:09.096Z,4.45
2022-10-05T12:52:54.152Z,8.48
2022-10-05T12:55:21.659Z,3.72
2022-10-05T12:58:30.179Z,4.75
2022-10-05T13:01:23.167Z,5.07
2022-10-05T13:04:01.779Z,3.55
2022-10-05T13:06:43.735Z,2.85
2022-10-05T13:09:33.144Z,3.67
2022-10-05T13:12:07.276Z,3.17
2022-10-05T13:14:55.542Z,2.72
2022-10-05T13:17:26.494Z,3.83
2022-10-05T13:19:58.409Z,3.05
2022-10-05T13:22:35.988Z,5.47
2022-10-05T13:25:17.278Z,3.55
2022-10-05T13:28:05.756Z,3.85
2022-10-05T13:30:32.909Z,3.15
2022-10-05T13:33:14.965Z,3.75
2022-10-05T13:35:47.940Z,8.65
2022-10-05T13:38:46.799Z,13.30
2022-10-05T13:41:49.868Z,8.15
2022-10-05T13:44:39.094Z,6.82
2022-10-05T13:47:12.869Z,10.18
2022-10-05T13:49:51.271Z,4.15
2022-10-05T13:52:33.886Z,3.95
2022-10-05T13:55:12.828Z,4.40
2022-10-05T13:57:47.113Z,9.70
2022-10-05T14:00:26.942Z,2.22
2022-10-05T14:02:56.647Z,7.13
2022-10-05T14:05:32.994Z,5.40
2022-10-05T14:08:02.050Z,6.40
2022-10-05T14:10:38.999Z,2.42
2022-10-05T14:13:23.159Z,5.10
2022-10-05T14:15:59.377Z,2.17
2022-10-05T14:18:28.529Z,3.35
2022-10-05T14:21:13.892Z,2.55
2022-10-05T14:23:40.933Z,5.20
2022-10-05T14:26:37.739Z,4.47
2022-10-05T14:29:18.052Z,4.18
2022-10-05T14:32:14.716Z,4.03
2022-10-05T14:34:56.425Z,4.88
2022-10-05T14:37:25.974Z,3.03
2022-10-05T14:39:57.853Z,2.70
2022-10-05T14:42:28.502Z,5.18
2022-10-05T14:45:23.915Z,4.60
2022-10-05T14:48:06.093Z,4.22
2022-10-05T14:50:33.274Z,2.25
2022-10-05T14:53:12.102Z,4.95
2022-10-05T14:56:26.786Z,4.85
2022-10-05T14:59:23.398Z,4.63
2022-10-05T15:02:20.488Z,4.35
2022-10-05T15:05:00.753Z,2.42
2022-10-05T15:07:40.899Z,2.92
2022-10-05T15:10:29.800Z,3.65
2022-10-05T15:13:09.199Z,2.35
2022-10-05T15:16:03.584Z,2.05
2022-10-05T15:18:57.325Z,1.65
2022-10-05T15:21:45.593Z,1.70
2022-10-05T15:24:30.031Z,2.92
2022-10-05T15:27:04.406Z,3.33
2022-10-05T15:29:49.827Z,3.28
2022-10-05T15:32:57.748Z,2.35
2022-10-05T15:35:41.219Z,3.67
2022-10-05T15:38:21.061Z,5.53
2022-10-05T15:40:58.675Z,2.53
2022-10-05T15:43:30.776Z,2.13
2022-10-05T15:46:04.401Z,2.28
2022-10-05T15:48:50.000Z,3.42
2022-10-05T15:51:34.786Z,3.03
2022-10-05T15:54:32.613Z,1.50
2022-10-05T15:57:21.045Z,3.80
2022-10-05T16:00:01.938Z,4.95
2022-10-05T16:02:31.482Z,2.03
2022-10-05T16:05:05.063Z,2.05
2022-10-05T16:08:00.081Z,3.15
2022-10-05T16:13:29.936Z,2.90
2022-10-05T16:16:11.891Z,4.00
2022-10-05T16:18:56.737Z,5.07
2022-10-05T16:24:42.984Z,2.33
2022-10-05T16:27:20.540Z,4.38
2022-10-05T16:30:04.379Z,2.33
2022-10-05T16:32:37.343Z,1.70
2022-10-05T16:35:17.328Z,4.00
2022-10-05T16:38:13.494Z,3.53
2022-10-05T16:40:50.935Z,3.13
2022-10-05T16:43:26.280Z,3.05
2022-10-05T16:46:10.058Z,2.20
2022-10-05T16:49:00.039Z,2.45
2022-10-05T16:51:45.299Z,2.28
2022-10-05T16:54:19.769Z,3.13
2022-10-05T16:56:55.582Z,5.10
2022-10-05T16:59:56.287Z,2.45
2022-10-05T17:02:41.225Z,5.45
2022-10-05T17:08:09.118Z,4.53
2022-10-05T17:10:57.051Z,4.88
2022-10-05T17:13:28.659Z,2.60
2022-10-05T17:16:03.813Z,3.17
2022-10-05T17:18:52.231Z,2.88
2022-10-05T17:21:34.632Z,3.72
2022-10-05T17:24:11.665Z,3.42
2022-10-05T17:26:58.179Z,4.30
2022-10-05T17:29:51.260Z,8.30
2022-10-05T17:32:18.031Z,4.70
2022-10-05T17:35:02.773Z,6.05
2022-10-05T17:38:18.117Z,4.07
2022-10-05T17:41:04.193Z,3.35
2022-10-05T17:43:33.056Z,7.90
2022-10-05T17:46:01.654Z,5.68
2022-10-05T17:48:50.965Z,3.10
2022-10-05T17:51:48.361Z,4.00
2022-10-05T17:54:50.303Z,4.78
2022-10-05T17:57:24.184Z,5.68
2022-10-05T17:59:53.878Z,6.20
2022-10-05T18:02:36.825Z,4.18
2022-10-05T18:05:04.691Z,7.22
2022-10-05T18:07:35.540Z,6.95
2022-10-05T18:10:17.234Z,8.48
2022-10-05T18:12:48.452Z,5.00
2022-10-05T18:15:24.262Z,6.78
2022-10-05T18:18:00.855Z,9.57
2022-10-05T18:20:31.569Z,5.22
2022-10-05T18:23:06.181Z,5.43
2022-10-05T18:25:47.588Z,4.00
2022-10-05T18:28:39.754Z,6.10
2022-10-05T18:31:37.640Z,3.90
2022-10-05T18:34:26.581Z,3.90
2022-10-05T18:36:56.559Z,3.28
2022-10-05T18:39:41.312Z,4.45
2022-10-05T18:42:27.121Z,5.70
2022-10-05T18:45:02.296Z,3.60
2022-10-05T18:48:07.295Z,4.40
2022-10-05T18:50:46.892Z,3.00
2022-10-05T18:53:43.321Z,10.18
2022-10-05T18:56:23.205Z,5.97
2022-10-05T18:59:01.704Z,4.18
2022-10-05T19:01:58.220Z,5.15
2022-10-05T19:04:30.193Z,4.30
2022-10-05T19:07:16.906Z,4.90
2022-10-05T19:10:02.026Z,3.15
2022-10-05T19:15:17.100Z,4.10
2022-10-05T19:18:04.740Z,3.03
2022-10-05T19:21:08.707Z,4.10
2022-10-05T19:23:45.851Z,4.30
2022-10-05T19:26:31.235Z,6.00
2022-10-05T19:29:47.668Z,5.97
2022-10-05T19:32:30.296Z,3.85
2022-10-05T19:35:03.440Z,4.47
2022-10-05T19:38:22.596Z,6.22
2022-10-05T19:41:14.058Z,6.97
2022-10-05T19:44:07.900Z,3.50
2022-10-05T19:46:50.806Z,4.68
2022-10-05T19:49:52.243Z,7.80
2022-10-05T19:52:22.096Z,5.75
2022-10-05T19:55:01.959Z,4.38
2022-10-05T19:57:29.058Z,6.05
2022-10-05T19:59:57.783Z,4.85
2022-10-05T20:02:27.245Z,6.07
2022-10-05T20:04:55.504Z,3.75
2022-10-05T20:07:22.985Z,4.13
2022-10-05T20:09:50.426Z,3.83
2022-10-05T20:12:16.796Z,5.40
2022-10-05T20:15:02.085Z,4.82
2022-10-05T20:17:47.834Z,7.00
2022-10-05T20:20:32.064Z,4.30
2022-10-05T20:23:25.002Z,5.55
2022-10-05T20:26:11.942Z,5.60
2022-10-05T20:28:38.497Z,6.35
2022-10-05T20:31:08.601Z,5.28
2022-10-05T20:33:35.479Z,5.30
2022-10-05T20:36:03.844Z,5.20
2022-10-05T20:38:31.503Z,4.68
2022-10-05T20:40:58.542Z,5.38
2022-10-05T20:43:24.909Z,4.40
2022-10-05T20:45:52.168Z,4.80
2022-10-05T20:48:20.000Z,4.00
2022-10-05T20:50:47.209Z,4.03
2022-10-05T20:53:13.623Z,5.40
2022-10-05T20:55:40.357Z,5.20
2022-10-05T20:58:08.832Z,3.83
2022-10-05T21:00:54.284Z,5.35
2022-10-05T21:03:20.746Z,3.25
2022-10-05T21:05:47.137Z,3.20
2022-10-05T21:08:14.336Z,3.25
2022-10-05T21:10:40.827Z,5.15
2022-10-05T21:13:07.152Z,5.93
2022-10-05T21:15:34.004Z,4.75
2022-10-05T21:18:00.324Z,4.25
2022-10-05T21:20:27.078Z,5.55
2022-10-05T21:22:53.392Z,5.25
2022-10-05T21:25:19.715Z,7.05
2022-10-05T21:27:48.946Z,9.32
2022-10-05T21:30:15.361Z,10.68
2022-10-05T21:32:44.440Z,6.75
2022-10-05T21:35:11.790Z,5.43
2022-10-05T21:37:38.148Z,7.28
2022-10-05T21:40:04.890Z,4.75
2022-10-05T21:42:31.834Z,5.53
2022-10-05T21:44:58.156Z,4.55
2022-10-05T21:47:25.449Z,4.75
2022-10-05T21:49:52.399Z,4.05
2022-10-05T21:52:18.909Z,2.97
2022-10-05T21:54:45.695Z,6.70
2022-10-05T21:57:13.052Z,4.93
2022-10-05T21:59:40.252Z,3.03
2022-10-05T22:02:06.573Z,4.30
2022-10-05T22:04:33.319Z,4.50
2022-10-05T22:06:59.651Z,5.10
2022-10-05T22:09:26.070Z,4.30
2022-10-05T22:11:52.946Z,5.53
2022-10-05T22:14:19.528Z,5.72
2022-10-05T22:16:46.000Z,5.07
2022-10-05T22:19:19.276Z,6.57
2022-10-05T22:21:45.689Z,5.50
2022-10-05T22:24:12.408Z,4.72
2022-10-05T22:26:41.735Z,5.22
2022-10-05T22:29:08.560Z,4.80
2022-10-05T22:31:35.720Z,5.85
2022-10-05T22:34:02.126Z,5.63
2022-10-05T22:36:29.056Z,6.95
2022-10-05T22:38:55.438Z,6.25
2022-10-05T22:41:21.840Z,7.20
2022-10-05T22:43:49.093Z,4.43
2022-10-05T22:46:15.895Z,4.82
2022-10-05T22:48:42.338Z,4.47
2022-10-05T22:51:09.199Z,4.80
2022-10-05T22:53:35.885Z,5.10
2022-10-05T22:56:09.967Z,5.85
2022-10-05T22:58:37.134Z,5.68
2022-10-05T23:01:05.919Z,4.95
2022-10-05T23:03:33.719Z,5.80
2022-10-05T23:06:03.477Z,5.60
2022-10-05T23:08:31.686Z,5.40
2022-10-05T23:11:02.915Z,5.45
2022-10-05T23:13:29.738Z,3.45
2022-10-05T23:15:56.616Z,4.80
2022-10-05T23:18:23.603Z,4.38
2022-10-05T23:20:56.151Z,5.60
2022-10-05T23:23:23.687Z,6.90
2022-10-05T23:25:50.203Z,5.82
2022-10-05T23:28:17.076Z,6.95
2022-10-05T23:30:43.567Z,6.80
2022-10-05T23:33:10.007Z,6.85
2022-10-05T23:35:36.883Z,8.70
2022-10-05T23:38:03.641Z,10.45
2022-10-05T23:40:30.372Z,8.77
2022-10-05T23:42:57.124Z,8.45
2022-10-05T23:45:24.000Z,11.27
2022-10-05T23:47:50.315Z,9.63
2022-10-05T23:50:17.347Z,12.30
2022-10-05T23:52:43.683Z,11.32
2022-10-05T23:55:10.295Z,12.68
2022-10-05T23:57:38.161Z,11.75
